Time;durP1;ratioP1;P1;durP2;ratioP2;P2;SDS_P1;SDS_P2;PMS_P1;PMS_P2;Temp;Humidity;BMP_temperature;BMP_pressure;BME280_temperature;BME280_humidity;BME280_pressure;Samples;Min_cycle;Max_cycle;Signal;HPM_P1;HPM_P2
2022/10/03 00:02:03;;;;;;;11.52;10.35;;;12.30;99.90;;;;;;6220745;22;20267;-72
2022/10/03 00:04:57;;;;;;;13.18;11.88;;;12.30;99.90;;;;;;6248685;22;20237;-72
2022/10/03 00:07:38;;;;;;;14.10;12.80;;;12.20;99.90;;;;;;6231896;22;20195;-72
2022/10/03 00:10:17;;;;;;;12.38;11.13;;;12.20;99.90;;;;;;6237377;23;20235;-72
2022/10/03 00:13:06;;;;;;;14.40;12.93;;;12.20;99.90;;;;;;6239856;22;20184;-72
2022/10/03 00:15:42;;;;;;;14.40;13.05;;;12.20;99.90;;;;;;6231475;22;20212;-72
2022/10/03 00:18:19;;;;;;;15.90;13.68;;;12.20;99.90;;;;;;6246636;22;20190;-72
2022/10/03 00:21:01;;;;;;;16.80;14.40;;;12.20;99.90;;;;;;6241152;22;20588;-72
2022/10/03 00:23:36;;;;;;;16.60;14.90;;;12.20;99.90;;;;;;6238899;22;20200;-72
2022/10/03 00:29:21;;;;;;;15.73;13.98;;;12.20;99.90;;;;;;6248702;22;20219;-72
2022/10/03 00:31:58;;;;;;;14.55;13.25;;;12.20;99.90;;;;;;6238596;23;20651;-72
2022/10/03 00:34:38;;;;;;;14.50;13.20;;;12.20;99.90;;;;;;6260727;22;20508;-72
2022/10/03 00:37:21;;;;;;;14.93;13.52;;;12.20;99.90;;;;;;6248258;22;20608;-72
2022/10/03 00:40:01;;;;;;;18.58;16.65;;;12.20;99.90;;;;;;6233969;22;20216;-72
2022/10/03 00:43:07;;;;;;;16.13;14.52;;;12.20;99.90;;;;;;6228342;22;20211;-72
2022/10/03 00:46:04;;;;;;;15.85;14.35;;;12.30;99.90;;;;;;6237819;23;20263;-72
2022/10/03 00:49:10;;;;;;;15.25;13.52;;;12.20;99.90;;;;;;6219522;22;20189;-72
2022/10/03 00:51:51;;;;;;;16.50;14.90;;;12.30;99.90;;;;;;6218192;22;20190;-72
2022/10/03 00:54:42;;;;;;;15.55;14.15;;;12.30;99.90;;;;;;6223276;22;20640;-72
2022/10/03 00:57:33;;;;;;;15.18;13.75;;;12.30;99.90;;;;;;6221553;22;20543;-73
2022/10/03 01:00:14;;;;;;;15.70;14.30;;;12.30;99.90;;;;;;6233407;22;20343;-73
2022/10/03 01:02:49;;;;;;;15.27;13.88;;;12.40;99.90;;;;;;6239173;22;20247;-72
2022/10/03 01:05:29;;;;;;;14.55;13.25;;;12.40;99.90;;;;;;6226889;22;20192;-73
2022/10/03 01:08:24;;;;;;;14.85;13.45;;;12.40;99.90;;;;;;6235930;22;20192;-72
2022/10/03 01:10:59;;;;;;;15.50;14.10;;;12.50;99.90;;;;;;6243157;22;20232;-72
2022/10/03 01:13:40;;;;;;;14.45;12.88;;;12.40;99.90;;;;;;6234510;22;20190;-72
2022/10/03 01:16:14;;;;;;;13.82;12.63;;;12.40;99.90;;;;;;6239201;22;20208;-72
2022/10/03 01:18:55;;;;;;;13.65;12.40;;;12.50;99.90;;;;;;6239093;22;20193;-72
2022/10/03 01:21:33;;;;;;;12.82;11.63;;;12.40;99.90;;;;;;6234137;22;20196;-72
2022/10/03 01:24:23;;;;;;;14.70;13.35;;;12.50;99.90;;;;;;6232884;23;20635;-73
2022/10/03 01:26:58;;;;;;;12.18;11.05;;;12.50;99.90;;;;;;6246382;22;20196;-73
2022/10/03 01:32:28;;;;;;;14.32;13.02;;;12.50;99.90;;;;;;6236037;22;20644;-72
2022/10/03 01:35:06;;;;;;;13.73;12.43;;;12.40;99.90;;;;;;6239493;22;20192;-73
2022/10/03 01:37:43;;;;;;;14.90;13.60;;;12.40;99.90;;;;;;6248343;22;20647;-72
2022/10/03 01:40:20;;;;;;;13.95;12.75;;;12.40;99.90;;;;;;6239061;22;20246;-73
2022/10/03 01:43:01;;;;;;;13.32;12.23;;;12.50;99.90;;;;;;6254261;22;20211;-71
2022/10/03 01:45:42;;;;;;;15.40;13.98;;;12.50;99.90;;;;;;6239652;22;20181;-72
2022/10/03 01:48:17;;;;;;;15.85;14.25;;;12.50;99.90;;;;;;6250779;22;20231;-71
2022/10/03 01:50:53;;;;;;;16.27;14.73;;;12.50;99.90;;;;;;6240863;22;20212;-71
2022/10/03 01:53:33;;;;;;;14.63;13.13;;;12.50;99.90;;;;;;6238165;23;20215;-72
2022/10/03 01:56:08;;;;;;;15.32;13.85;;;12.50;99.90;;;;;;6241831;22;20195;-71
2022/10/03 01:58:49;;;;;;;16.10;14.50;;;12.50;99.90;;;;;;6237818;23;20188;-71
2022/10/03 02:01:26;;;;;;;14.48;13.18;;;12.50;99.90;;;;;;6240445;22;20212;-72
2022/10/03 02:04:03;;;;;;;17.17;15.52;;;12.50;99.90;;;;;;6237111;23;20224;-72
2022/10/03 02:06:42;;;;;;;22.20;14.60;;;12.50;99.90;;;;;;6240276;22;20582;-71
2022/10/03 02:09:20;;;;;;;15.15;13.70;;;12.40;99.90;;;;;;6245818;22;20215;-71
2022/10/03 02:12:00;;;;;;;17.67;15.85;;;12.40;99.90;;;;;;6245487;22;20220;-71
2022/10/03 02:14:34;;;;;;;16.95;15.15;;;12.40;99.90;;;;;;6242046;22;20196;-72
2022/10/03 02:17:07;;;;;;;15.88;14.52;;;12.40;99.90;;;;;;6237674;23;20647;-72
2022/10/03 02:19:46;;;;;;;15.10;13.68;;;12.40;99.90;;;;;;6250058;22;20299;-71
2022/10/03 02:22:30;;;;;;;16.63;14.88;;;12.30;99.90;;;;;;6238024;22;20191;-71
2022/10/03 02:25:13;;;;;;;17.63;15.60;;;12.30;99.90;;;;;;6239491;23;20268;-72
2022/10/03 02:28:10;;;;;;;16.67;15.07;;;12.30;99.90;;;;;;6236604;22;20581;-71
2022/10/03 02:30:51;;;;;;;15.88;14.18;;;12.30;99.90;;;;;;6248804;22;20216;-72
2022/10/03 02:33:57;;;;;;;15.90;14.32;;;12.30;99.90;;;;;;6240545;23;20212;-72
2022/10/03 02:36:43;;;;;;;16.20;13.70;;;12.30;99.90;;;;;;6236418;22;20188;-72
2022/10/03 02:39:49;;;;;;;17.00;15.30;;;12.30;99.90;;;;;;6234736;22;20275;-71
2022/10/03 02:42:56;;;;;;;16.83;15.20;;;12.30;99.90;;;;;;6243075;22;20207;-72
2022/10/03 02:46:03;;;;;;;15.82;14.25;;;12.30;99.90;;;;;;6218526;23;20581;-72
2022/10/03 02:48:59;;;;;;;16.98;14.93;;;12.20;99.90;;;;;;6223607;22;20223;-73
2022/10/03 02:51:43;;;;;;;16.55;14.90;;;12.20;99.90;;;;;;6238201;22;20263;-72
2022/10/03 02:54:46;;;;;;;17.02;15.25;;;12.20;99.90;;;;;;6239307;23;20185;-72
2022/10/03 02:57:54;;;;;;;15.75;14.25;;;12.20;99.90;;;;;;6237826;22;20264;-73
2022/10/03 03:00:31;;;;;;;15.10;13.57;;;12.10;99.90;;;;;;6229014;22;20298;-72
2022/10/03 03:03:23;;;;;;;18.45;15.60;;;12.10;99.90;;;;;;6238527;22;20196;-73
2022/10/03 03:06:15;;;;;;;17.83;14.07;;;12.10;99.90;;;;;;6223904;23;20566;-73
2022/10/03 03:08:57;;;;;;;14.52;13.13;;;12.10;99.90;;;;;;6249316;22;20212;-73
2022/10/03 03:12:08;;;;;;;14.05;12.65;;;12.10;99.90;;;;;;6242951;22;20188;-73
2022/10/03 03:15:11;;;;;;;16.15;14.55;;;12.00;99.90;;;;;;6236066;22;20212;-72
2022/10/03 03:17:49;;;;;;;15.07;13.50;;;12.10;99.90;;;;;;6201972;22;20188;-72
2022/10/03 03:20:28;;;;;;;17.20;12.32;;;12.10;99.90;;;;;;6238966;23;20227;-73
2022/10/03 03:23:25;;;;;;;13.95;12.63;;;12.00;99.90;;;;;;6231934;22;20676;-73
2022/10/03 03:26:12;;;;;;;13.93;12.50;;;12.10;99.90;;;;;;6241049;22;20238;-73
2022/10/03 03:28:49;;;;;;;13.10;11.75;;;12.10;99.90;;;;;;6226400;23;20243;-73
2022/10/03 03:31:22;;;;;;;14.02;12.73;;;12.10;99.90;;;;;;6237433;22;20189;-73
2022/10/03 03:33:57;;;;;;;14.05;12.52;;;12.10;99.90;;;;;;6239230;22;20672;-73
2022/10/03 03:36:32;;;;;;;13.93;12.73;;;12.20;99.90;;;;;;6236965;22;20241;-73
2022/10/03 03:39:12;;;;;;;14.40;12.90;;;12.20;99.90;;;;;;6239240;22;20336;-73
2022/10/03 03:42:04;;;;;;;14.20;12.63;;;12.20;99.90;;;;;;6223894;22;20258;-73
2022/10/03 03:44:57;;;;;;;13.70;12.40;;;12.20;99.90;;;;;;6228437;22;20363;-73
2022/10/03 03:47:43;;;;;;;15.23;13.80;;;12.20;99.90;;;;;;6234814;23;20210;-73
2022/10/03 03:50:27;;;;;;;14.48;13.13;;;12.30;99.90;;;;;;6242886;22;20219;-72
2022/10/03 03:53:19;;;;;;;14.05;12.70;;;12.30;99.90;;;;;;6235842;22;20195;-73
2022/10/03 03:56:02;;;;;;;13.07;11.88;;;12.20;99.90;;;;;;6252301;22;20237;-73
2022/10/03 03:58:38;;;;;;;13.20;11.93;;;12.20;99.90;;;;;;6229350;22;20212;-73
2022/10/03 04:01:31;;;;;;;12.15;11.05;;;12.30;99.90;;;;;;6237983;22;20244;-73
2022/10/03 04:04:12;;;;;;;13.65;12.18;;;12.30;99.90;;;;;;6234080;22;20193;-73
2022/10/03 04:06:50;;;;;;;14.15;12.90;;;12.30;99.90;;;;;;6237746;22;20189;-73
2022/10/03 04:10:02;;;;;;;15.50;14.00;;;12.40;99.90;;;;;;6254032;22;20261;-73
2022/10/03 04:12:47;;;;;;;13.38;12.07;;;12.40;99.90;;;;;;6230454;22;20215;-73
2022/10/03 04:15:30;;;;;;;14.35;12.85;;;12.40;99.90;;;;;;6236619;22;20184;-73
2022/10/03 04:21:19;;;;;;;14.63;13.32;;;12.40;99.90;;;;;;6226456;22;20208;-72
2022/10/03 04:24:20;;;;;;;16.58;14.90;;;12.40;99.90;;;;;;6236377;22;20655;-72
2022/10/03 04:27:00;;;;;;;14.75;13.30;;;12.40;99.90;;;;;;6236209;22;20192;-72
2022/10/03 04:29:42;;;;;;;14.35;13.05;;;12.30;99.90;;;;;;6229075;22;20212;-72
2022/10/03 04:32:25;;;;;;;14.18;12.88;;;12.30;99.90;;;;;;6239549;23;20237;-72
2022/10/03 04:35:13;;;;;;;13.13;11.93;;;12.30;99.90;;;;;;6240138;22;20863;-72
2022/10/03 04:37:44;;;;;;;14.70;12.85;;;12.30;99.90;;;;;;6228779;22;20260;-73
2022/10/03 04:40:27;;;;;;;14.60;13.10;;;12.40;99.90;;;;;;6231992;22;20240;-73
2022/10/03 04:43:05;;;;;;;14.32;12.93;;;12.40;99.90;;;;;;6235523;22;20185;-73
2022/10/03 04:45:46;;;;;;;15.10;13.60;;;12.40;99.90;;;;;;6226607;23;20532;-73
2022/10/03 04:48:18;;;;;;;14.85;13.35;;;12.40;99.90;;;;;;6235837;22;20208;-73
2022/10/03 04:50:56;;;;;;;15.05;13.73;;;12.40;99.90;;;;;;6238612;22;20208;-72
2022/10/03 04:53:39;;;;;;;14.57;13.30;;;12.40;99.90;;;;;;6219623;22;20185;-72
2022/10/03 04:56:24;;;;;;;14.30;12.90;;;12.40;99.90;;;;;;6242525;22;20241;-72
2022/10/03 04:59:03;;;;;;;15.05;13.55;;;12.30;99.90;;;;;;6225075;22;20212;-73
2022/10/03 05:01:43;;;;;;;17.05;14.95;;;12.40;99.90;;;;;;6228761;22;20207;-73
2022/10/03 05:04:24;;;;;;;16.90;15.25;;;12.30;99.90;;;;;;6225765;22;20635;-75
2022/10/03 05:06:59;;;;;;;17.52;15.60;;;12.30;99.90;;;;;;6236438;22;20192;-76
2022/10/03 05:09:33;;;;;;;18.13;16.23;;;12.20;99.90;;;;;;6235195;22;20200;-79
2022/10/03 05:12:10;;;;;;;17.15;15.10;;;12.20;99.90;;;;;;6247283;22;20224;-75
2022/10/03 05:14:51;;;;;;;17.92;16.13;;;12.20;99.90;;;;;;6227561;23;20276;-75
2022/10/03 05:17:25;;;;;;;20.35;18.20;;;12.20;99.90;;;;;;6228998;22;20188;-75
2022/10/03 05:20:22;;;;;;;17.40;15.75;;;12.20;99.90;;;;;;6238605;22;20882;-75
2022/10/03 05:22:56;;;;;;;18.45;15.25;;;12.20;99.90;;;;;;6238062;23;20220;-75
2022/10/03 05:25:34;;;;;;;18.45;16.55;;;12.20;99.90;;;;;;6236609;22;20207;-75
2022/10/03 05:28:12;;;;;;;18.67;16.85;;;12.20;99.90;;;;;;6233862;22;20281;-75
2022/10/03 05:30:48;;;;;;;16.90;15.20;;;12.10;99.90;;;;;;6231372;22;20766;-75
2022/10/03 05:33:29;;;;;;;18.95;17.05;;;12.10;99.90;;;;;;6235447;23;20215;-76
2022/10/03 05:36:10;;;;;;;19.73;17.73;;;12.10;99.90;;;;;;6229544;23;20674;-74
2022/10/03 05:39:07;;;;;;;18.33;16.45;;;12.10;99.90;;;;;;6233277;22;20687;-75
2022/10/03 05:41:37;;;;;;;17.88;16.10;;;12.00;99.90;;;;;;6236650;22;20212;-75
2022/10/03 05:44:09;;;;;;;19.33;17.30;;;12.00;99.90;;;;;;6260848;22;20702;-74
2022/10/03 05:46:50;;;;;;;20.08;17.80;;;12.00;99.90;;;;;;6230747;22;20236;-75
2022/10/03 05:49:42;;;;;;;18.65;16.67;;;12.10;99.90;;;;;;6237452;22;20244;-75
2022/10/03 05:52:33;;;;;;;19.33;17.48;;;12.00;99.90;;;;;;6234453;22;20190;-76
2022/10/03 05:55:13;;;;;;;17.70;15.90;;;12.00;99.90;;;;;;6210499;23;20241;-78
2022/10/03 05:58:21;;;;;;;18.35;16.52;;;12.00;99.90;;;;;;6222110;22;20259;-77
2022/10/03 06:01:26;;;;;;;19.05;15.82;;;12.00;99.90;;;;;;6178291;22;20303;-78
2022/10/03 06:04:23;;;;;;;18.80;17.02;;;12.00;99.90;;;;;;6236405;22;20245;-76
2022/10/03 06:07:05;;;;;;;17.90;15.52;;;12.00;99.90;;;;;;6236016;22;20245;-76
2022/10/03 06:09:56;;;;;;;17.00;15.30;;;12.00;99.90;;;;;;6254519;22;20209;-76
2022/10/03 06:12:31;;;;;;;14.90;13.68;;;12.00;99.90;;;;;;6239935;22;20232;-76
2022/10/03 06:15:41;;;;;;;15.77;14.32;;;12.00;99.90;;;;;;6240035;22;20276;-76
2022/10/03 06:18:27;;;;;;;17.05;14.50;;;12.00;99.90;;;;;;6144217;23;20676;-76
2022/10/03 06:21:31;;;;;;;14.57;13.38;;;12.00;99.90;;;;;;6246027;22;20709;-76
2022/10/03 06:24:25;;;;;;;17.30;15.23;;;12.00;99.90;;;;;;6235939;22;20241;-76
2022/10/03 06:27:11;;;;;;;15.40;14.00;;;11.90;99.90;;;;;;6236395;22;20245;-76
2022/10/03 06:30:16;;;;;;;12.77;11.45;;;11.70;99.90;;;;;;6225925;22;20279;-75
2022/10/03 06:33:34;;;;;;;13.30;12.00;;;12.00;99.90;;;;;;6204043;22;20216;-77
2022/10/03 06:36:40;;;;;;;11.45;10.43;;;12.30;99.90;;;;;;6233494;22;20255;-75
2022/10/03 06:39:55;;;;;;;14.25;12.70;;;12.50;99.90;;;;;;6229343;22;20206;-72
2022/10/03 06:42:37;;;;;;;14.98;13.55;;;12.70;99.90;;;;;;6225502;22;20287;-78
2022/10/03 06:45:36;;;;;;;14.70;13.23;;;12.80;99.90;;;;;;6229198;22;20180;-82
2022/10/03 06:48:34;;;;;;;15.13;13.63;;;12.80;99.90;;;;;;6207715;22;20534;-76
2022/10/03 06:51:28;;;;;;;14.52;13.02;;;12.70;99.90;;;;;;6230785;22;20193;-73
2022/10/03 06:54:16;;;;;;;15.02;13.48;;;12.70;99.90;;;;;;6233198;22;20268;-74
2022/10/03 06:57:13;;;;;;;15.93;14.23;;;12.70;99.90;;;;;;6219041;22;20181;-78
2022/10/03 07:02:46;;;;;;;14.50;13.10;;;12.80;99.90;;;;;;5267796;22;20293;-77
2022/10/03 07:05:47;;;;;;;15.45;14.00;;;12.90;99.90;;;;;;5040419;28;20201;-77
2022/10/03 07:08:42;;;;;;;14.95;13.13;;;13.00;99.90;;;;;;5051094;28;20197;-78
2022/10/03 07:11:45;;;;;;;14.55;13.15;;;13.10;99.90;;;;;;5031206;28;20218;-78
2022/10/03 07:14:51;;;;;;;15.35;12.90;;;13.20;99.90;;;;;;5023756;28;20198;-78
2022/10/03 07:17:43;;;;;;;12.90;11.70;;;13.30;99.90;;;;;;5008737;28;20207;-77
2022/10/03 07:20:33;;;;;;;15.43;12.70;;;13.30;99.90;;;;;;5025713;28;20551;-78
2022/10/03 07:23:31;;;;;;;14.90;13.40;;;13.20;99.90;;;;;;5017409;28;20559;-78
2022/10/03 07:26:31;;;;;;;15.70;14.03;;;13.30;99.90;;;;;;5029988;28;20463;-78
2022/10/03 07:29:17;;;;;;;16.00;13.40;;;13.30;99.90;;;;;;5022223;28;20536;-78
2022/10/03 07:32:17;;;;;;;14.50;13.17;;;13.30;99.90;;;;;;5023988;28;20503;-78
2022/10/03 07:35:16;;;;;;;14.55;13.05;;;13.20;99.90;;;;;;5024287;28;20505;-78
2022/10/03 07:41:21;;;;;;;14.87;11.70;;;13.20;99.90;;;;;;5026018;28;20484;-78
2022/10/03 07:44:08;;;;;;;13.40;11.20;;;13.20;99.90;;;;;;5025636;28;20794;-78
2022/10/03 07:47:09;;;;;;;11.43;10.30;;;13.30;99.90;;;;;;5026574;28;20551;-78
2022/10/03 07:50:10;;;;;;;11.00;9.87;;;13.30;99.90;;;;;;5017856;28;20678;-80
2022/10/03 07:53:09;;;;;;;10.37;9.33;;;13.40;99.90;;;;;;5019066;28;20461;-75
2022/10/03 07:55:59;;;;;;;11.43;10.23;;;13.50;99.90;;;;;;5024856;28;20469;-77
2022/10/03 07:58:53;;;;;;;8.93;8.03;;;13.60;99.90;;;;;;5018999;28;21061;-79
2022/10/03 08:01:52;;;;;;;9.70;8.27;;;13.60;99.90;;;;;;5017639;28;20927;-79
2022/10/03 08:04:49;;;;;;;12.30;8.83;;;13.50;99.90;;;;;;5005077;28;20473;-78
2022/10/03 08:07:36;;;;;;;10.03;8.97;;;13.50;99.90;;;;;;5018193;28;20880;-78
2022/10/03 08:10:58;;;;;;;10.20;9.30;;;13.40;99.90;;;;;;5031338;28;20560;-79
2022/10/03 08:13:35;;;;;;;9.45;8.45;;;13.40;99.90;;;;;;5019912;28;20454;-79
2022/10/03 08:16:19;;;;;;;8.60;7.50;;;13.40;99.90;;;;;;5029020;28;20667;-78
2022/10/03 08:19:15;;;;;;;10.35;7.03;;;13.30;99.90;;;;;;5026426;28;20201;-78
2022/10/03 08:21:55;;;;;;;8.27;6.90;;;13.30;99.90;;;;;;5015089;28;20238;-79
2022/10/03 08:24:55;;;;;;;9.67;7.70;;;13.30;99.90;;;;;;5022622;28;21034;-79
2022/10/03 08:27:43;;;;;;;8.43;7.40;;;13.40;99.90;;;;;;5019821;28;20452;-78
2022/10/03 08:30:21;;;;;;;9.23;7.93;;;13.40;99.90;;;;;;5024022;28;20500;-78
2022/10/03 08:33:00;;;;;;;9.50;7.10;;;13.50;99.90;;;;;;5020669;28;20561;-78
2022/10/03 08:36:07;;;;;;;9.63;6.80;;;13.60;99.90;;;;;;5014325;28;20503;-77
2022/10/03 08:38:50;;;;;;;7.73;6.77;;;13.50;99.90;;;;;;5022688;28;21013;-78
2022/10/03 08:41:45;;;;;;;10.27;6.63;;;13.70;99.90;;;;;;5014486;28;20583;-79
2022/10/03 08:44:45;;;;;;;7.50;6.73;;;13.70;99.90;;;;;;5013155;28;20483;-78
2022/10/03 08:47:54;;;;;;;6.63;6.03;;;13.80;99.90;;;;;;5013897;28;20572;-78
2022/10/03 08:51:01;;;;;;;8.30;6.37;;;13.90;99.90;;;;;;5012815;28;20553;-78
2022/10/03 08:54:00;;;;;;;6.30;5.70;;;14.00;99.90;;;;;;5015980;28;20520;-77
2022/10/03 08:56:40;;;;;;;9.40;6.00;;;14.10;99.90;;;;;;5013258;28;20458;-77
2022/10/03 08:59:58;;;;;;;7.27;5.87;;;14.10;99.90;;;;;;5020422;28;20459;-77
2022/10/03 09:03:00;;;;;;;6.83;6.23;;;14.10;99.90;;;;;;5014212;28;20482;-76
2022/10/03 09:06:12;;;;;;;7.50;6.10;;;14.20;99.90;;;;;;5016005;28;20458;-77
2022/10/03 09:09:15;;;;;;;7.47;5.30;;;14.20;99.90;;;;;;5015255;28;20537;-77
2022/10/03 09:12:22;;;;;;;6.47;5.23;;;14.30;99.90;;;;;;5021678;28;20458;-76
2022/10/03 09:15:10;;;;;;;6.77;4.80;;;14.30;99.90;;;;;;4984067;28;20462;-76
2022/10/03 09:18:04;;;;;;;6.80;5.50;;;14.20;99.90;;;;;;5017437;28;20473;-76
2022/10/03 09:20:54;;;;;;;7.07;5.00;;;14.20;99.90;;;;;;5020622;28;20574;-76
2022/10/03 09:23:51;;;;;;;8.90;5.90;;;14.20;99.90;;;;;;5023001;28;20509;-76
2022/10/03 09:26:47;;;;;;;12.10;5.93;;;14.30;99.90;;;;;;5017660;28;20553;-79
2022/10/03 09:29:47;;;;;;;8.63;5.67;;;14.30;99.90;;;;;;5024036;28;20462;-77
2022/10/03 09:32:37;;;;;;;8.40;5.03;;;14.40;99.90;;;;;;5019069;28;20542;-77
2022/10/03 09:35:39;;;;;;;8.57;5.90;;;14.40;99.90;;;;;;5023635;28;20453;-76
2022/10/03 09:38:51;;;;;;;6.60;6.00;;;14.30;99.90;;;;;;5025750;28;20550;-76
2022/10/03 09:41:46;;;;;;;8.77;5.90;;;14.20;99.90;;;;;;5024790;28;20484;-74
2022/10/03 09:44:29;;;;;;;11.67;6.30;;;14.10;99.90;;;;;;5025259;28;20456;-76
2022/10/03 09:47:39;;;;;;;7.23;5.90;;;14.00;99.90;;;;;;5015430;28;21023;-75
2022/10/03 09:50:40;;;;;;;11.37;6.77;;;13.90;99.90;;;;;;4949402;28;20520;-76
2022/10/03 09:53:36;;;;;;;8.53;6.43;;;14.00;99.90;;;;;;4948093;28;20898;-74
2022/10/03 09:56:34;;;;;;;10.17;6.77;;;13.90;99.90;;;;;;5015880;28;20452;-75
2022/10/03 09:59:28;;;;;;;6.57;5.87;;;13.80;99.90;;;;;;5023727;28;20546;-75
2022/10/03 10:02:14;;;;;;;10.20;7.47;;;13.80;99.90;;;;;;5026111;28;20475;-75
2022/10/03 10:04:59;;;;;;;9.50;6.47;;;14.00;99.90;;;;;;5029233;28;20966;-75
2022/10/03 10:07:52;;;;;;;8.13;7.10;;;14.20;99.90;;;;;;5032028;28;20452;-75
2022/10/03 10:10:58;;;;;;;8.13;7.43;;;14.40;99.90;;;;;;5028538;28;20472;-75
2022/10/03 10:14:15;;;;;;;8.43;6.57;;;14.60;99.90;;;;;;5021237;28;20559;-73
2022/10/03 10:17:25;;;;;;;9.43;7.00;;;14.70;99.90;;;;;;5023143;28;20461;-75
2022/10/03 10:20:00;;;;;;;9.00;7.23;;;14.90;99.90;;;;;;5025266;28;20491;-74
2022/10/03 10:23:10;;;;;;;6.90;6.20;;;15.00;99.90;;;;;;5025102;28;20479;-77
2022/10/03 10:26:02;;;;;;;8.87;7.27;;;15.00;99.90;;;;;;5026761;28;20544;-74
2022/10/03 10:28:59;;;;;;;11.50;9.70;;;15.00;99.90;;;;;;5022326;28;20543;-76
2022/10/03 10:32:05;;;;;;;11.07;9.87;;;15.00;99.90;;;;;;5026489;28;20464;-75
2022/10/03 10:35:16;;;;;;;8.33;6.93;;;15.00;99.90;;;;;;5029196;28;20954;-75
2022/10/03 10:38:24;;;;;;;7.23;5.90;;;15.00;99.90;;;;;;5019570;28;20498;-76
2022/10/03 10:41:29;;;;;;;7.67;6.00;;;15.00;99.90;;;;;;5002444;28;20489;-77
2022/10/03 10:44:32;;;;;;;7.53;5.23;;;15.10;99.90;;;;;;5025463;28;20571;-76
2022/10/03 10:47:12;;;;;;;6.23;5.63;;;15.20;99.90;;;;;;5019511;28;20954;-74
2022/10/03 10:50:18;;;;;;;8.77;5.80;;;15.40;99.90;;;;;;5030566;28;20479;-74
2022/10/03 10:53:27;;;;;;;6.73;4.63;;;15.50;99.90;;;;;;5002082;28;20551;-75
2022/10/03 10:56:26;;;;;;;6.60;4.90;;;15.90;99.90;;;;;;5020582;28;20864;-76
2022/10/03 10:59:36;;;;;;;6.80;5.23;;;16.60;99.90;;;;;;5021309;28;20460;-75
2022/10/03 11:02:53;;;;;;;6.53;4.97;;;17.30;99.90;;;;;;5019594;28;20547;-76
2022/10/03 11:05:57;;;;;;;4.80;3.30;;;18.10;99.90;;;;;;5027232;28;20579;-77
2022/10/03 11:08:55;;;;;;;4.50;4.00;;;19.10;99.90;;;;;;5025968;28;20494;-75
2022/10/03 11:12:06;;;;;;;10.27;4.30;;;20.20;99.90;;;;;;5027127;28;20456;-75
2022/10/03 11:15:09;;;;;;;4.43;3.60;;;21.10;99.90;;;;;;5023006;28;20511;-75
2022/10/03 11:18:06;;;;;;;4.60;3.70;;;21.80;99.90;;;;;;5011557;28;20460;-76
2022/10/03 11:21:06;;;;;;;6.47;3.90;;;22.40;99.90;;;;;;5025628;28;20968;-75
2022/10/03 11:24:03;;;;;;;8.67;3.67;;;23.00;99.90;;;;;;4988066;28;20540;-76
2022/10/03 11:27:05;;;;;;;4.47;3.40;;;23.10;99.90;;;;;;5026485;28;20498;-75
2022/10/03 11:30:05;;;;;;;4.53;2.87;;;22.90;99.90;;;;;;5029974;28;20560;-76
2022/10/03 11:33:20;;;;;;;3.53;2.90;;;23.10;99.90;;;;;;5029762;28;20467;-76
2022/10/03 11:36:16;;;;;;;4.90;3.00;;;22.90;99.90;;;;;;5034190;28;20463;-78
2022/10/03 11:38:55;;;;;;;4.43;2.70;;;22.20;99.90;;;;;;5037099;28;20480;-78
2022/10/03 11:41:35;;;;;;;4.83;3.27;;;21.70;99.90;;;;;;5027138;28;20553;-78
2022/10/03 11:44:19;;;;;;;14.87;13.43;;;21.10;99.90;;;;;;5024711;28;20522;-79
2022/10/03 11:47:02;;;;;;;4.50;2.90;;;20.70;99.90;;;;;;5029585;28;20488;-78
2022/10/03 11:50:10;;;;;;;5.00;3.10;;;20.70;99.90;;;;;;5023472;28;20475;-78
2022/10/03 11:52:53;;;;;;;4.27;3.03;;;21.10;99.90;;;;;;5017534;28;20460;-81
2022/10/03 11:55:30;;;;;;;2.83;2.43;;;21.80;99.90;;;;;;5023984;28;20539;-78
2022/10/03 11:58:12;;;;;;;6.00;3.30;;;22.40;99.90;;;;;;5024707;28;20554;-78
2022/10/03 12:00:44;;;;;;;4.63;2.90;;;23.10;99.90;;;;;;5018573;28;20482;-81
2022/10/03 12:03:19;;;;;;;6.67;3.87;;;23.40;99.70;;;;;;5021481;28;20475;-81
2022/10/03 12:08:53;;;;;;;5.63;3.07;;;23.60;96.80;;;;;;5024750;28;20464;-77
2022/10/03 12:08:58;;;;;;;5.23;3.23;;;22.80;98.80;;;;;;5027098;28;20540;-77
2022/10/03 12:11:29;;;;;;;4.67;2.90;;;22.30;98.10;;;;;;5027935;28;20460;-75
2022/10/03 12:14:14;;;;;;;5.00;2.60;;;21.80;99.50;;;;;;5028474;28;20468;-76
2022/10/03 12:16:57;;;;;;;5.37;3.40;;;21.30;99.90;;;;;;5016657;28;20474;-77
2022/10/03 12:19:31;;;;;;;4.90;3.97;;;20.70;99.90;;;;;;5022730;28;20474;-75
2022/10/03 12:22:08;;;;;;;4.40;3.20;;;20.20;99.90;;;;;;5029640;28;20990;-75
2022/10/03 12:24:40;;;;;;;3.87;2.83;;;19.80;99.90;;;;;;5018278;28;20455;-76
2022/10/03 12:27:19;;;;;;;5.27;2.77;;;19.60;99.90;;;;;;5031612;28;20472;-75
2022/10/03 12:29:57;;;;;;;3.73;2.70;;;19.30;99.90;;;;;;5020420;28;20476;-76
2022/10/03 12:32:37;;;;;;;4.20;2.50;;;19.10;99.90;;;;;;5027463;28;20550;-76
2022/10/03 12:35:20;;;;;;;3.70;2.47;;;19.00;99.90;;;;;;5021052;28;20973;-75
2022/10/03 12:38:09;;;;;;;5.40;2.73;;;18.90;99.90;;;;;;5025195;28;20455;-77
2022/10/03 12:40:42;;;;;;;3.93;2.77;;;18.80;99.90;;;;;;5021666;28;20480;-75
2022/10/03 12:43:23;;;;;;;2.63;2.40;;;18.70;99.90;;;;;;5022913;28;20684;-76
2022/10/03 12:45:57;;;;;;;5.80;2.87;;;18.60;99.90;;;;;;5021668;28;20453;-77
2022/10/03 12:48:41;;;;;;;10.77;9.67;;;18.50;99.90;;;;;;5021153;28;20547;-77
2022/10/03 12:51:19;;;;;;;5.60;3.20;;;19.00;99.90;;;;;;5021042;28;20460;-77
2022/10/03 12:54:03;;;;;;;4.50;2.67;;;19.80;99.90;;;;;;5018537;28;20539;-76
2022/10/03 12:56:43;;;;;;;4.07;2.30;;;20.70;99.90;;;;;;5022245;28;20456;-75
2022/10/03 12:59:19;;;;;;;4.80;2.70;;;21.50;99.90;;;;;;5017391;28;20544;-76
2022/10/03 13:02:01;;;;;;;3.63;2.53;;;21.90;99.90;;;;;;5021735;28;20465;-76
2022/10/03 13:04:39;;;;;;;4.37;2.63;;;22.10;99.90;;;;;;5019453;28;21012;-76
2022/10/03 13:07:23;;;;;;;3.10;2.20;;;22.00;99.90;;;;;;5021495;28;20545;-76
2022/10/03 13:10:02;;;;;;;6.50;2.97;;;21.90;99.70;;;;;;5022694;28;20482;-76
2022/10/03 13:12:44;;;;;;;4.50;2.60;;;21.80;99.00;;;;;;5020776;28;20511;-76
2022/10/03 13:15:44;;;;;;;4.57;2.43;;;21.70;98.90;;;;;;5016082;28;20489;-76
2022/10/03 13:18:34;;;;;;;3.80;2.40;;;22.00;97.30;;;;;;5018053;28;20465;-77
2022/10/03 13:21:08;;;;;;;3.50;2.20;;;22.20;96.20;;;;;;5015553;28;20540;-76
2022/10/03 13:23:46;;;;;;;2.90;2.30;;;22.60;95.30;;;;;;5028451;28;20562;-76
2022/10/03 13:26:18;;;;;;;4.60;2.40;;;22.70;96.00;;;;;;5027802;28;21853;-76
2022/10/03 13:29:12;;;;;;;2.87;2.30;;;22.90;95.70;;;;;;5029298;28;20455;-77
2022/10/03 13:32:07;;;;;;;3.70;2.33;;;23.00;94.80;;;;;;5029797;28;20544;-77
2022/10/03 13:34:45;;;;;;;3.50;2.20;;;22.90;94.90;;;;;;5026956;28;20456;-76
2022/10/03 13:37:18;;;;;;;3.67;2.30;;;22.80;95.70;;;;;;5025804;28;20456;-77
2022/10/03 13:39:49;;;;;;;3.57;2.43;;;22.90;95.60;;;;;;5029539;28;20472;-77
2022/10/03 13:42:21;;;;;;;2.50;2.17;;;23.10;94.10;;;;;;5023751;28;20482;-77
2022/10/03 13:44:54;;;;;;;2.53;2.10;;;23.10;95.00;;;;;;5025650;28;22264;-76
2022/10/03 13:47:35;;;;;;;3.60;2.40;;;23.50;94.40;;;;;;5025241;28;20462;-76
2022/10/03 13:50:08;;;;;;;3.77;2.57;;;23.90;92.90;;;;;;5024851;28;20513;-76
2022/10/03 13:52:41;;;;;;;2.87;2.37;;;24.10;91.40;;;;;;5028049;28;20459;-75
2022/10/03 13:55:25;;;;;;;3.57;3.27;;;23.90;90.70;;;;;;5026993;28;20479;-76
2022/10/03 13:58:09;;;;;;;2.53;2.20;;;23.70;91.10;;;;;;5024431;28;20865;-76
2022/10/03 14:00:52;;;;;;;4.13;2.40;;;23.60;91.60;;;;;;5031778;28;20998;-77
2022/10/03 14:03:27;;;;;;;4.37;2.60;;;23.30;91.60;;;;;;5024596;28;20537;-77
2022/10/03 14:06:06;;;;;;;3.97;2.37;;;23.00;91.70;;;;;;5029250;28;20526;-77
2022/10/03 14:08:55;;;;;;;3.47;1.93;;;22.60;92.50;;;;;;5028348;28;20455;-77
2022/10/03 14:11:28;;;;;;;4.13;2.20;;;22.80;92.70;;;;;;5027871;28;20464;-76
2022/10/03 14:14:22;;;;;;;2.80;2.13;;;22.90;93.00;;;;;;5020556;28;20615;-76
2022/10/03 14:16:59;;;;;;;4.00;2.17;;;23.30;93.40;;;;;;5023110;28;21722;-76
2022/10/03 14:19:40;;;;;;;3.77;1.67;;;23.60;92.10;;;;;;5025198;28;21086;-76
2022/10/03 14:22:20;;;;;;;3.83;1.83;;;23.80;92.00;;;;;;5026505;28;20470;-76
2022/10/03 14:25:02;;;;;;;3.10;1.80;;;24.00;92.00;;;;;;5028770;28;20534;-77
2022/10/03 14:27:46;;;;;;;3.93;2.30;;;24.60;91.40;;;;;;5024559;28;20454;-77
2022/10/03 14:30:17;;;;;;;4.57;2.90;;;25.00;89.20;;;;;;5027685;28;20508;-76
2022/10/03 14:32:52;;;;;;;3.93;2.33;;;25.00;88.80;;;;;;5030634;28;20448;-76
2022/10/03 14:35:33;;;;;;;3.50;2.00;;;25.10;87.70;;;;;;5015346;28;20452;-77
2022/10/03 14:38:18;;;;;;;3.83;2.20;;;25.20;84.60;;;;;;5030771;28;20474;-77